Time;durP1;ratioP1;P1;durP2;ratioP2;P2;SDS_P1;SDS_P2;PMS_P1;PMS_P2;Temp;Humidity;BMP_temperature;BMP_pressure;BME280_temperature;BME280_humidity;BME280_pressure;Samples;Min_cycle;Max_cycle;Signal;HPM_P1;HPM_P2
2020/12/05 00:02:14;;;;;;;41.65;20.80;;;2.40;81.50;;;;;;5028485;28;20032;-63
2020/12/05 00:04:39;;;;;;;32.97;18.92;;;2.40;81.40;;;;;;5031370;28;20026;-63
2020/12/05 00:07:05;;;;;;;34.88;20.38;;;2.40;81.80;;;;;;5033800;28;20025;-63
2020/12/05 00:09:31;;;;;;;31.88;18.70;;;2.40;82.00;;;;;;5028150;28;20029;-63
2020/12/05 00:11:56;;;;;;;33.30;18.63;;;2.40;82.40;;;;;;5025846;28;20029;-63
2020/12/05 00:14:22;;;;;;;39.80;19.67;;;2.40;81.90;;;;;;5032979;28;20116;-63
2020/12/05 00:16:51;;;;;;;32.35;17.63;;;2.50;81.80;;;;;;5032755;28;20035;-63
2020/12/05 00:19:18;;;;;;;30.25;16.67;;;2.40;81.50;;;;;;5026769;28;20037;-63
2020/12/05 00:21:44;;;;;;;35.45;18.60;;;2.50;81.90;;;;;;5034743;28;20018;-63
2020/12/05 00:24:10;;;;;;;37.22;20.10;;;2.50;81.80;;;;;;5030025;28;20030;-63
2020/12/05 00:26:36;;;;;;;32.70;19.88;;;2.50;81.70;;;;;;5031838;28;20036;-63
2020/12/05 00:29:02;;;;;;;28.80;17.15;;;2.50;81.40;;;;;;5034281;28;20034;-63
2020/12/05 00:31:27;;;;;;;37.55;19.60;;;2.50;81.30;;;;;;5029342;28;20734;-63
2020/12/05 00:33:53;;;;;;;35.10;19.08;;;2.50;81.10;;;;;;5028433;28;20022;-63
2020/12/05 00:36:19;;;;;;;32.83;17.20;;;2.50;81.30;;;;;;5023567;28;20037;-63
2020/12/05 00:38:46;;;;;;;34.58;19.30;;;2.50;81.40;;;;;;5034266;28;20029;-63
2020/12/05 00:41:16;;;;;;;30.52;17.73;;;2.50;81.40;;;;;;5032784;28;20029;-63
2020/12/05 00:43:41;;;;;;;34.65;20.30;;;2.50;81.50;;;;;;5034013;28;20018;-63
2020/12/05 00:46:07;;;;;;;35.10;18.55;;;2.50;81.30;;;;;;5032593;28;20033;-63
2020/12/05 00:48:33;;;;;;;33.50;17.65;;;2.50;81.10;;;;;;5031154;28;20029;-63
2020/12/05 00:50:59;;;;;;;39.47;20.40;;;2.50;81.10;;;;;;5028964;28;20376;-63
2020/12/05 00:53:24;;;;;;;36.00;18.45;;;2.50;81.00;;;;;;5032584;28;20025;-63
2020/12/05 00:55:50;;;;;;;36.10;19.67;;;2.50;81.00;;;;;;5033805;28;20018;-63
2020/12/05 00:58:16;;;;;;;42.08;20.83;;;2.40;81.10;;;;;;5032739;28;20064;-63
2020/12/05 01:00:42;;;;;;;42.50;21.55;;;2.50;81.30;;;;;;5031032;28;20127;-63
2020/12/05 01:03:08;;;;;;;36.30;18.80;;;2.50;81.30;;;;;;5022314;28;20022;-63
2020/12/05 01:05:35;;;;;;;37.17;18.38;;;2.50;81.60;;;;;;5032295;28;20028;-63
2020/12/05 01:08:06;;;;;;;37.90;18.00;;;2.50;81.40;;;;;;5031799;28;20017;-63
2020/12/05 01:10:33;;;;;;;37.65;19.45;;;2.50;81.40;;;;;;5029483;28;20034;-63
2020/12/05 01:13:02;;;;;;;31.75;17.27;;;2.50;81.20;;;;;;5024931;28;20042;-63
2020/12/05 01:15:31;;;;;;;34.50;19.77;;;2.60;81.50;;;;;;5025697;28;20083;-63
2020/12/05 01:17:56;;;;;;;43.45;22.90;;;2.60;81.20;;;;;;5028926;28;20032;-63
2020/12/05 01:20:23;;;;;;;39.63;20.88;;;2.60;81.20;;;;;;5034352;28;20034;-63
2020/12/05 01:22:49;;;;;;;30.60;16.92;;;2.60;81.20;;;;;;5035045;28;20366;-63
2020/12/05 01:25:15;;;;;;;46.88;22.45;;;2.70;81.30;;;;;;5025752;28;20427;-63
2020/12/05 01:27:43;;;;;;;48.03;23.35;;;2.60;81.10;;;;;;5033422;28;20043;-63
2020/12/05 01:30:09;;;;;;;41.13;21.25;;;2.70;81.30;;;;;;5032154;28;20033;-63
2020/12/05 01:32:35;;;;;;;40.33;21.20;;;2.70;80.90;;;;;;5028846;28;20469;-63
2020/12/05 01:35:00;;;;;;;44.35;20.83;;;2.70;80.80;;;;;;5028867;28;20058;-63
2020/12/05 01:37:26;;;;;;;49.35;23.40;;;2.60;80.50;;;;;;5022752;28;20025;-63
2020/12/05 01:39:52;;;;;;;45.33;20.58;;;2.60;80.80;;;;;;5033512;28;20030;-63
2020/12/05 01:42:17;;;;;;;51.08;23.23;;;2.60;81.00;;;;;;5031122;28;20026;-63
2020/12/05 01:44:43;;;;;;;55.17;24.17;;;2.60;81.10;;;;;;5034588;28;20032;-62
2020/12/05 01:47:10;;;;;;;47.63;23.02;;;2.60;80.90;;;;;;5033560;28;20018;-63
2020/12/05 01:49:36;;;;;;;57.45;27.25;;;2.60;80.90;;;;;;5033846;28;20106;-63
2020/12/05 01:52:02;;;;;;;56.65;26.38;;;2.60;80.60;;;;;;5032656;28;20122;-63
2020/12/05 01:54:30;;;;;;;52.53;22.83;;;2.60;80.90;;;;;;5034485;28;20058;-63
2020/12/05 01:57:03;;;;;;;54.03;23.08;;;2.60;81.10;;;;;;5034813;28;20036;-63
2020/12/05 01:59:30;;;;;;;47.85;22.13;;;2.70;81.10;;;;;;5030680;28;20508;-63
2020/12/05 02:01:57;;;;;;;62.65;27.58;;;2.70;81.10;;;;;;5021229;28;20161;-63
2020/12/05 02:04:28;;;;;;;52.55;25.00;;;2.70;80.90;;;;;;5033911;28;20029;-63
2020/12/05 02:07:24;;;;;;;53.15;23.67;;;2.70;81.00;;;;;;5033718;28;20025;-63
2020/12/05 02:09:53;;;;;;;51.88;23.55;;;2.70;80.90;;;;;;5031288;28;20030;-63
2020/12/05 02:12:48;;;;;;;58.80;23.80;;;2.80;81.10;;;;;;5033742;28;20048;-63
2020/12/05 02:15:25;;;;;;;71.50;25.90;;;2.70;81.00;;;;;;5022183;28;20501;-63
2020/12/05 02:18:09;;;;;;;69.45;27.70;;;2.80;80.90;;;;;;5034001;28;20552;-63
2020/12/05 02:20:37;;;;;;;81.40;32.88;;;2.80;80.70;;;;;;5027415;28;20484;-63
2020/12/05 02:23:16;;;;;;;66.65;30.13;;;2.80;80.70;;;;;;5034187;28;20107;-63
2020/12/05 02:25:43;;;;;;;90.40;34.47;;;2.80;80.70;;;;;;5034368;28;20036;-63
2020/12/05 02:28:10;;;;;;;103.10;40.20;;;2.80;80.60;;;;;;5033801;28;20037;-62
2020/12/05 02:30:36;;;;;;;70.63;30.48;;;2.80;80.70;;;;;;5033256;28;20056;-62
2020/12/05 02:33:03;;;;;;;91.00;35.67;;;2.80;80.70;;;;;;5034115;28;20485;-63
2020/12/05 02:35:29;;;;;;;71.35;30.00;;;2.80;80.70;;;;;;5032579;28;20030;-63
2020/12/05 02:38:05;;;;;;;78.85;33.58;;;2.80;80.60;;;;;;5033390;28;20036;-63
2020/12/05 02:40:31;;;;;;;87.97;37.10;;;2.80;80.50;;;;;;5034166;28;20064;-63
2020/12/05 02:42:58;;;;;;;73.53;28.35;;;2.80;80.40;;;;;;5033629;28;20026;-63
2020/12/05 02:45:24;;;;;;;69.55;26.33;;;2.80;80.20;;;;;;5032997;28;20091;-63
2020/12/05 02:47:50;;;;;;;71.07;30.15;;;2.70;80.20;;;;;;5033369;28;20483;-63
2020/12/05 02:50:16;;;;;;;64.63;27.95;;;2.70;80.20;;;;;;5031714;28;20307;-63
2020/12/05 02:52:41;;;;;;;83.63;32.30;;;2.70;80.20;;;;;;5031043;28;20109;-63
2020/12/05 02:55:07;;;;;;;75.38;30.85;;;2.70;80.30;;;;;;5033484;28;20048;-63
2020/12/05 02:57:33;;;;;;;86.03;33.08;;;2.70;80.70;;;;;;5033714;28;20029;-62
2020/12/05 02:59:58;;;;;;;73.47;28.30;;;2.70;80.70;;;;;;5028259;28;20083;-63
2020/12/05 03:02:24;;;;;;;80.40;31.52;;;2.80;81.70;;;;;;5033083;28;20029;-63
2020/12/05 03:04:51;;;;;;;71.35;29.98;;;2.80;80.90;;;;;;5033158;28;20030;-63
2020/12/05 03:07:18;;;;;;;74.05;28.27;;;2.80;80.80;;;;;;5033189;28;20569;-63
2020/12/05 03:09:44;;;;;;;66.35;25.65;;;2.90;80.80;;;;;;5033105;28;20030;-63
2020/12/05 03:12:10;;;;;;;85.03;32.53;;;2.90;80.80;;;;;;5033330;28;20442;-63
2020/12/05 03:14:35;;;;;;;94.72;30.92;;;2.90;80.70;;;;;;5032984;28;20057;-63
2020/12/05 03:17:01;;;;;;;92.00;34.75;;;2.90;80.70;;;;;;5033439;28;20060;-63
2020/12/05 03:19:26;;;;;;;87.18;33.63;;;2.90;80.70;;;;;;5033464;28;20037;-63
2020/12/05 03:21:52;;;;;;;79.40;30.75;;;2.90;80.80;;;;;;5031872;28;20029;-63
2020/12/05 03:24:18;;;;;;;93.72;35.75;;;3.00;80.90;;;;;;5032976;28;20021;-63
2020/12/05 03:26:44;;;;;;;86.28;30.92;;;3.00;80.70;;;;;;5033220;28;20031;-63
2020/12/05 03:29:09;;;;;;;79.30;27.50;;;3.00;81.00;;;;;;5031456;28;20029;-63
2020/12/05 03:34:14;;;;;;;74.15;27.90;;;3.10;80.70;;;;;;5032664;28;20033;-63
2020/12/05 03:36:40;;;;;;;91.43;35.08;;;3.10;80.40;;;;;;5032864;28;20021;-63
2020/12/05 03:39:06;;;;;;;88.70;30.77;;;3.10;80.40;;;;;;5032942;28;20504;-63
2020/12/05 03:41:31;;;;;;;77.25;28.05;;;3.10;80.40;;;;;;5031525;28;20104;-63
2020/12/05 03:43:57;;;;;;;84.13;30.73;;;3.10;80.10;;;;;;5029595;28;20025;-63
2020/12/05 03:46:23;;;;;;;84.25;28.92;;;3.10;80.30;;;;;;5030573;28;20057;-63
2020/12/05 03:48:49;;;;;;;79.40;29.35;;;3.10;80.40;;;;;;5032981;28;20033;-63
2020/12/05 03:51:14;;;;;;;79.13;29.90;;;3.10;80.30;;;;;;5032377;28;20033;-63
2020/12/05 03:53:40;;;;;;;78.88;30.92;;;3.10;80.10;;;;;;5024107;28;20041;-63
2020/12/05 03:56:06;;;;;;;75.18;28.42;;;3.00;80.20;;;;;;5026174;28;20049;-63
2020/12/05 03:58:32;;;;;;;77.60;29.77;;;3.10;80.20;;;;;;5031851;28;20045;-63
2020/12/05 04:00:57;;;;;;;74.53;28.33;;;3.00;80.30;;;;;;5032392;28;20445;-63
2020/12/05 04:03:23;;;;;;;80.55;29.65;;;3.00;80.20;;;;;;5026309;28;20021;-63
2020/12/05 04:05:49;;;;;;;77.95;29.05;;;3.00;80.30;;;;;;5032682;28;20032;-63
2020/12/05 04:08:14;;;;;;;75.72;28.70;;;3.00;80.40;;;;;;5032350;28;20030;-63
2020/12/05 04:10:40;;;;;;;85.65;29.98;;;3.00;80.50;;;;;;5032252;28;20049;-63
2020/12/05 04:13:06;;;;;;;85.38;32.00;;;3.10;80.70;;;;;;5032791;28;20036;-63
2020/12/05 04:15:31;;;;;;;60.53;26.77;;;3.00;80.40;;;;;;5031554;28;20051;-63
2020/12/05 04:17:57;;;;;;;76.68;31.73;;;3.10;80.40;;;;;;5031797;28;20021;-63
2020/12/05 04:20:23;;;;;;;81.13;29.15;;;3.10;80.30;;;;;;5030995;28;20091;-63
2020/12/05 04:22:48;;;;;;;77.38;27.73;;;3.00;80.10;;;;;;5032012;28;20017;-63
2020/12/05 04:25:14;;;;;;;65.82;24.77;;;2.90;79.90;;;;;;5032097;28;20096;-63
2020/12/05 04:27:40;;;;;;;77.25;30.00;;;2.90;80.20;;;;;;5030926;28;20041;-63
2020/12/05 04:30:06;;;;;;;61.35;27.27;;;2.90;80.20;;;;;;5032600;28;20030;-63
2020/12/05 04:32:31;;;;;;;74.88;29.15;;;2.80;80.20;;;;;;5033242;28;20026;-63
2020/12/05 04:34:58;;;;;;;65.80;25.05;;;2.70;80.50;;;;;;5029228;28;20117;-63
2020/12/05 04:37:24;;;;;;;80.90;29.15;;;2.70;80.90;;;;;;5028162;28;20112;-63
2020/12/05 04:39:50;;;;;;;76.45;28.65;;;2.70;81.10;;;;;;5032229;28;20546;-63
2020/12/05 04:42:16;;;;;;;78.35;28.80;;;2.80;81.30;;;;;;5035079;28;20057;-63
2020/12/05 04:44:42;;;;;;;71.72;26.92;;;2.80;81.20;;;;;;5035667;28;20036;-62
2020/12/05 04:47:10;;;;;;;68.47;27.50;;;2.80;81.10;;;;;;5035670;28;20025;-63
2020/12/05 04:49:37;;;;;;;69.97;27.80;;;2.90;80.90;;;;;;5035080;28;20026;-63
2020/12/05 04:52:31;;;;;;;62.40;26.58;;;2.90;81.00;;;;;;5032612;28;20028;-63
2020/12/05 04:54:57;;;;;;;54.58;23.95;;;2.90;80.80;;;;;;5034858;28;20095;-63
2020/12/05 04:57:30;;;;;;;55.05;21.98;;;2.90;80.70;;;;;;5036050;28;20021;-62
2020/12/05 04:59:55;;;;;;;60.65;25.15;;;2.90;80.70;;;;;;5035805;28;20113;-63
2020/12/05 05:02:29;;;;;;;54.58;26.02;;;2.80;80.50;;;;;;5035091;28;20473;-63
2020/12/05 05:04:55;;;;;;;51.95;25.23;;;2.80;80.70;;;;;;5035023;28;20084;-63
2020/12/05 05:07:21;;;;;;;57.15;25.63;;;2.80;80.70;;;;;;5035436;28;20029;-63
2020/12/05 05:10:02;;;;;;;52.15;24.25;;;2.70;80.60;;;;;;5035227;28;20037;-62
2020/12/05 05:12:32;;;;;;;55.58;24.50;;;2.80;80.80;;;;;;5035796;28;20037;-63
2020/12/05 05:14:57;;;;;;;59.55;26.77;;;2.70;80.80;;;;;;5035221;28;20040;-63
2020/12/05 05:17:23;;;;;;;60.25;26.35;;;2.80;80.90;;;;;;5034341;28;20021;-63
2020/12/05 05:19:49;;;;;;;52.28;23.83;;;2.80;80.70;;;;;;5035624;28;20036;-63
2020/12/05 05:22:20;;;;;;;48.35;24.33;;;2.70;80.60;;;;;;5029956;28;20064;-63
2020/12/05 05:25:04;;;;;;;53.30;22.63;;;2.70;80.70;;;;;;5035245;28;20021;-63
2020/12/05 05:27:30;;;;;;;59.88;24.00;;;2.70;80.80;;;;;;5035156;28;20041;-63
2020/12/05 05:30:11;;;;;;;60.45;26.02;;;2.70;80.90;;;;;;5035411;28;20040;-63
2020/12/05 05:32:44;;;;;;;63.55;27.08;;;2.70;80.70;;;;;;5030031;28;20104;-63
2020/12/05 05:35:14;;;;;;;53.92;24.15;;;2.70;81.10;;;;;;5035340;28;20040;-63
2020/12/05 05:37:42;;;;;;;55.65;25.02;;;2.70;81.40;;;;;;5035434;28;20052;-63
2020/12/05 05:40:10;;;;;;;59.42;24.77;;;2.70;81.10;;;;;;5034115;28;20101;-63
2020/12/05 05:42:39;;;;;;;52.45;25.05;;;2.80;81.30;;;;;;5034607;28;20040;-63
2020/12/05 05:45:24;;;;;;;59.35;24.67;;;2.80;81.40;;;;;;5034064;28;20075;-63
2020/12/05 05:48:09;;;;;;;48.05;22.42;;;2.90;81.30;;;;;;5033735;28;20469;-63
2020/12/05 05:50:36;;;;;;;47.10;22.15;;;2.90;81.20;;;;;;5035322;28;20083;-63
2020/12/05 05:53:03;;;;;;;68.65;27.63;;;2.90;81.60;;;;;;5034682;28;20028;-63
2020/12/05 05:55:43;;;;;;;51.65;25.02;;;2.90;80.90;;;;;;5034361;28;20037;-63
2020/12/05 05:58:10;;;;;;;51.10;23.35;;;2.90;80.90;;;;;;5034247;28;20045;-63
2020/12/05 06:00:44;;;;;;;62.92;27.33;;;2.90;80.80;;;;;;5034343;28;20513;-63
2020/12/05 06:03:17;;;;;;;58.67;26.45;;;2.90;80.90;;;;;;5032579;28;20021;-63
2020/12/05 06:05:47;;;;;;;48.47;23.60;;;2.90;81.10;;;;;;5022874;28;20414;-63
2020/12/05 06:08:22;;;;;;;40.97;21.33;;;3.00;81.00;;;;;;5034424;28;20412;-63
2020/12/05 06:11:01;;;;;;;49.17;22.73;;;3.00;80.90;;;;;;5034515;28;20032;-63
2020/12/05 06:13:29;;;;;;;41.10;19.67;;;3.00;80.90;;;;;;5033967;28;20030;-62
2020/12/05 06:15:59;;;;;;;51.90;24.73;;;3.00;81.00;;;;;;5033743;28;20025;-63
2020/12/05 06:18:25;;;;;;;41.75;21.38;;;3.00;81.10;;;;;;5034503;28;20034;-63
2020/12/05 06:20:51;;;;;;;46.00;22.75;;;3.00;81.30;;;;;;5034103;28;20041;-63
2020/12/05 06:24:02;;;;;;;46.40;22.48;;;3.10;81.30;;;;;;5034618;28;20076;-63
2020/12/05 06:26:30;;;;;;;43.75;20.85;;;3.10;81.30;;;;;;4990976;28;20035;-63
2020/12/05 06:28:59;;;;;;;40.92;20.35;;;3.10;81.20;;;;;;5019215;28;20511;-63
2020/12/05 06:31:45;;;;;;;49.38;25.75;;;3.20;80.90;;;;;;5034064;28;20029;-63
2020/12/05 06:34:32;;;;;;;42.47;21.63;;;3.10;80.40;;;;;;5029369;28;20091;-63
2020/12/05 06:36:58;;;;;;;43.83;23.15;;;3.10;80.30;;;;;;5032632;28;20420;-63
2020/12/05 06:39:24;;;;;;;40.85;23.58;;;3.10;80.30;;;;;;5033659;28;20044;-63
2020/12/05 06:41:52;;;;;;;40.67;24.70;;;3.00;80.20;;;;;;5024458;28;20026;-63
2020/12/05 06:44:20;;;;;;;39.00;22.33;;;2.90;80.40;;;;;;5033393;28;20029;-63
2020/12/05 06:46:54;;;;;;;44.05;23.73;;;2.80;80.50;;;;;;5032733;28;20033;-63
2020/12/05 06:49:38;;;;;;;32.05;19.65;;;2.70;80.50;;;;;;5032713;28;20022;-63
2020/12/05 06:52:24;;;;;;;35.63;20.63;;;2.60;80.50;;;;;;5032079;28;20033;-63
2020/12/05 06:54:56;;;;;;;32.13;18.90;;;2.50;80.50;;;;;;5021432;28;20492;-63
2020/12/05 06:57:25;;;;;;;;;;;2.50;80.80;;;;;;5028401;28;20041;-63
2020/12/05 06:59:51;;;;;;;33.03;18.95;;;2.40;81.00;;;;;;5029989;28;19919;-63
2020/12/05 07:02:31;;;;;;;37.47;20.23;;;2.40;81.30;;;;;;5033496;28;20416;-63
2020/12/05 07:05:19;;;;;;;31.65;17.38;;;2.40;81.30;;;;;;5029864;28;20431;-63
2020/12/05 07:08:21;;;;;;;31.13;17.67;;;2.40;81.40;;;;;;5028036;28;20022;-63
2020/12/05 07:10:54;;;;;;;40.08;23.13;;;2.40;81.50;;;;;;5028695;28;20044;-63
2020/12/05 07:13:29;;;;;;;43.60;23.95;;;2.40;81.50;;;;;;5025527;28;20045;-63
2020/12/05 07:16:08;;;;;;;43.50;23.00;;;2.30;81.10;;;;;;5029521;28;20033;-63
2020/12/05 07:18:36;;;;;;;37.45;20.25;;;2.30;81.30;;;;;;5023110;28;20033;-63
2020/12/05 07:21:05;;;;;;;37.60;21.23;;;2.20;81.70;;;;;;5028472;28;20032;-63
2020/12/05 07:23:31;;;;;;;38.03;22.15;;;2.30;82.00;;;;;;5026174;28;20080;-63
2020/12/05 07:25:58;;;;;;;44.15;24.55;;;2.30;81.80;;;;;;5026078;28;20026;-63
2020/12/05 07:28:24;;;;;;;40.38;23.27;;;2.30;82.00;;;;;;5030981;28;20037;-63
2020/12/05 07:30:50;;;;;;;38.35;21.13;;;2.20;81.60;;;;;;5026593;28;20027;-63
2020/12/05 07:33:18;;;;;;;41.67;24.13;;;2.20;81.80;;;;;;5025992;28;20466;-63
2020/12/05 07:35:44;;;;;;;37.15;19.92;;;2.20;81.90;;;;;;5020204;28;20025;-63
2020/12/05 07:38:15;;;;;;;37.28;21.17;;;2.20;82.00;;;;;;5022622;28;20029;-63
2020/12/05 07:40:41;;;;;;;;;;;2.20;81.90;;;;;;5028591;28;20032;-63
2020/12/05 07:43:18;;;;;;;39.45;22.45;;;2.10;81.80;;;;;;5020395;28;20260;-63
2020/12/05 07:45:45;;;;;;;34.53;20.10;;;2.20;81.90;;;;;;5021411;28;20022;-63
2020/12/05 07:48:17;;;;;;;31.00;19.70;;;2.20;81.90;;;;;;5020925;28;20022;-63
2020/12/05 07:50:43;;;;;;;30.90;17.75;;;2.20;82.00;;;;;;5026054;28;20037;-63
2020/12/05 07:53:31;;;;;;;41.60;24.30;;;2.20;82.00;;;;;;5027761;28;20520;-63
2020/12/05 07:55:58;;;;;;;32.92;19.58;;;2.30;81.70;;;;;;5025776;28;20037;-63
2020/12/05 07:58:24;;;;;;;28.42;18.17;;;2.20;81.70;;;;;;5027580;28;20035;-62
2020/12/05 08:00:55;;;;;;;33.60;19.25;;;2.20;81.80;;;;;;5025241;28;20100;-62
2020/12/05 08:03:50;;;;;;;30.50;19.70;;;2.30;81.80;;;;;;5029396;28;20029;-62
2020/12/05 08:06:24;;;;;;;32.80;20.20;;;2.30;81.60;;;;;;5017179;28;20377;-63
2020/12/05 08:09:01;;;;;;;32.05;18.60;;;2.30;81.40;;;;;;5033335;28;20028;-63
2020/12/05 08:11:27;;;;;;;34.75;20.02;;;2.40;81.70;;;;;;5032535;28;20018;-63
2020/12/05 08:13:53;;;;;;;35.05;20.50;;;2.40;81.50;;;;;;5035903;28;20095;-63
2020/12/05 08:16:20;;;;;;;36.10;19.75;;;2.40;81.30;;;;;;5035704;28;20029;-63
2020/12/05 08:18:47;;;;;;;34.53;18.67;;;2.40;81.10;;;;;;5036533;28;20063;-63
2020/12/05 08:21:13;;;;;;;34.30;18.63;;;2.40;81.30;;;;;;5030748;28;20026;-63
2020/12/05 08:23:40;;;;;;;29.67;18.52;;;2.40;81.40;;;;;;5031894;28;20024;-63
2020/12/05 08:26:23;;;;;;;37.78;21.23;;;2.40;81.40;;;;;;5043095;28;20484;-63
2020/12/05 08:28:49;;;;;;;35.10;18.10;;;2.50;81.10;;;;;;5035336;28;20041;-63
2020/12/05 08:31:16;;;;;;;34.67;18.52;;;2.40;81.10;;;;;;5020051;28;20548;-63
2020/12/05 08:33:50;;;;;;;31.85;18.60;;;2.40;80.90;;;;;;5030101;28;20382;-63
2020/12/05 08:36:16;;;;;;;33.85;18.90;;;2.40;80.80;;;;;;5027909;28;20025;-63
2020/12/05 08:38:42;;;;;;;36.80;21.55;;;2.30;80.70;;;;;;5035784;28;20017;-63
2020/12/05 08:41:08;;;;;;;37.30;20.98;;;2.30;80.80;;;;;;5031249;28;20040;-63
2020/12/05 08:43:34;;;;;;;30.83;19.48;;;2.30;81.00;;;;;;5030992;28;20026;-63
2020/12/05 08:46:00;;;;;;;36.22;23.98;;;2.30;81.30;;;;;;5027723;28;20505;-63
2020/12/05 08:48:26;;;;;;;31.67;20.45;;;2.30;81.40;;;;;;5034448;28;20038;-63
2020/12/05 08:50:52;;;;;;;34.40;21.15;;;2.30;81.60;;;;;;5031495;28;20026;-63
2020/12/05 08:53:21;;;;;;;31.10;19.70;;;2.30;81.60;;;;;;5024929;28;20036;-63
2020/12/05 08:55:48;;;;;;;28.20;19.30;;;2.30;81.50;;;;;;5038178;28;20107;-63
2020/12/05 08:58:15;;;;;;;31.45;18.83;;;2.40;81.80;;;;;;5028313;28;20033;-63
2020/12/05 09:00:41;;;;;;;29.00;17.30;;;2.40;81.70;;;;;;5026633;28;20413;-63
2020/12/05 09:03:20;;;;;;;24.38;16.75;;;2.40;81.50;;;;;;5023493;28;20056;-63
2020/12/05 09:05:48;;;;;;;26.77;16.58;;;2.40;81.50;;;;;;5026111;28;20026;-63
2020/12/05 09:08:21;;;;;;;29.00;17.85;;;2.40;81.70;;;;;;5027008;28;20057;-63
2020/12/05 09:10:48;;;;;;;29.02;17.60;;;2.50;81.60;;;;;;5031612;28;20025;-63
2020/12/05 09:13:14;;;;;;;33.88;20.70;;;2.50;81.30;;;;;;5020664;28;20041;-63
2020/12/05 09:15:54;;;;;;;31.25;18.98;;;2.40;81.10;;;;;;5029737;28;20025;-63
2020/12/05 09:18:20;;;;;;;31.05;17.50;;;2.40;81.30;;;;;;5032693;28;20028;-63
2020/12/05 09:20:45;;;;;;;28.33;18.38;;;2.40;81.20;;;;;;5031075;28;20025;-64
2020/12/05 09:23:11;;;;;;;28.02;17.23;;;2.40;81.20;;;;;;5029713;28;20025;-63
2020/12/05 09:25:39;;;;;;;30.10;19.42;;;2.40;81.10;;;;;;5038742;28;20027;-64
2020/12/05 09:28:18;;;;;;;29.90;17.67;;;2.40;81.10;;;;;;5031811;28;20045;-63
2020/12/05 09:30:44;;;;;;;29.05;18.55;;;2.30;81.20;;;;;;5031146;28;20033;-63
2020/12/05 09:33:17;;;;;;;24.65;16.10;;;2.30;81.30;;;;;;5032529;28;20112;-63
2020/12/05 09:35:44;;;;;;;25.67;16.75;;;2.30;81.50;;;;;;5031251;28;20374;-63
2020/12/05 09:38:11;;;;;;;25.30;16.35;;;2.30;81.60;;;;;;5027454;28;20530;-63
2020/12/05 09:40:37;;;;;;;23.50;16.13;;;2.40;81.90;;;;;;5034553;28;20087;-63
2020/12/05 09:43:02;;;;;;;23.50;15.13;;;2.40;81.50;;;;;;5038291;28;20022;-63
2020/12/05 09:45:29;;;;;;;23.80;16.25;;;2.40;81.30;;;;;;5035334;28;20033;-63
2020/12/05 09:47:55;;;;;;;27.42;16.65;;;2.40;81.30;;;;;;5036124;28;20843;-63
2020/12/05 09:50:22;;;;;;;24.40;16.60;;;2.30;81.10;;;;;;5028795;28;20040;-64
2020/12/05 09:52:48;;;;;;;25.92;17.77;;;2.30;81.50;;;;;;5030832;28;20091;-64
2020/12/05 09:55:13;;;;;;;23.55;15.75;;;2.40;81.80;;;;;;5026587;28;20025;-64
2020/12/05 09:57:40;;;;;;;22.15;14.95;;;2.40;81.50;;;;;;5028641;28;20092;-64
2020/12/05 10:00:11;;;;;;;23.48;15.02;;;2.40;81.60;;;;;;5032648;28;20080;-63
2020/12/05 10:02:38;;;;;;;22.92;16.23;;;2.40;81.50;;;;;;5032839;28;20026;-64
2020/12/05 10:05:06;;;;;;;25.90;16.23;;;2.40;81.00;;;;;;5025587;28;20030;-63
2020/12/05 10:07:31;;;;;;;25.33;19.00;;;2.40;81.10;;;;;;5029979;28;20040;-63
2020/12/05 10:09:57;;;;;;;23.48;16.63;;;2.40;80.90;;;;;;5025380;28;20025;-64
2020/12/05 10:12:23;;;;;;;24.10;14.38;;;2.30;81.20;;;;;;5024060;28;20125;-64
2020/12/05 10:14:49;;;;;;;20.27;13.40;;;2.30;81.20;;;;;;5025330;28;20104;-64
2020/12/05 10:17:14;;;;;;;25.00;15.23;;;2.40;81.30;;;;;;5032637;28;20034;-64
2020/12/05 10:19:40;;;;;;;22.60;14.73;;;2.40;81.10;;;;;;5028792;28;20025;-64
2020/12/05 10:22:06;;;;;;;22.88;15.63;;;2.40;81.20;;;;;;5028108;28;20083;-64
2020/12/05 10:24:31;;;;;;;24.95;17.40;;;2.40;81.30;;;;;;5033911;28;20040;-63
2020/12/05 10:26:57;;;;;;;28.92;17.27;;;2.40;81.40;;;;;;5037004;28;20430;-64
2020/12/05 10:29:24;;;;;;;30.13;19.70;;;2.40;80.80;;;;;;5028689;28;20025;-64
2020/12/05 10:31:52;;;;;;;27.00;17.67;;;2.30;80.80;;;;;;5036208;28;20033;-63
2020/12/05 10:34:18;;;;;;;24.35;15.90;;;2.30;80.80;;;;;;5028544;28;20416;-64
2020/12/05 10:36:44;;;;;;;33.33;19.23;;;2.20;81.00;;;;;;5021084;28;20045;-64
2020/12/05 10:39:11;;;;;;;24.15;15.40;;;2.20;81.10;;;;;;5026104;28;20108;-63
2020/12/05 10:41:38;;;;;;;29.85;17.73;;;2.20;81.00;;;;;;5034368;28;20100;-64
2020/12/05 10:44:08;;;;;;;25.13;15.85;;;2.20;80.80;;;;;;5031201;28;20033;-64
2020/12/05 10:46:39;;;;;;;24.60;15.98;;;2.20;81.10;;;;;;5034627;28;20030;-63
2020/12/05 10:49:05;;;;;;;39.78;27.58;;;2.20;81.30;;;;;;5034927;28;20034;-63
2020/12/05 10:51:31;;;;;;;26.58;16.95;;;2.20;81.40;;;;;;5036027;28;20036;-63
2020/12/05 10:53:57;;;;;;;22.92;14.68;;;2.20;81.30;;;;;;5031126;28;20087;-63
2020/12/05 10:56:26;;;;;;;26.15;15.02;;;2.20;81.20;;;;;;5030840;28;20496;-63
2020/12/05 10:58:52;;;;;;;23.20;14.52;;;2.20;81.40;;;;;;5033489;28;20050;-63
2020/12/05 11:01:19;;;;;;;29.98;16.40;;;2.20;81.60;;;;;;5033843;28;20017;-63
2020/12/05 11:03:44;;;;;;;33.97;16.13;;;2.30;81.20;;;;;;5025308;28;20074;-64
2020/12/05 11:06:11;;;;;;;30.52;16.83;;;2.30;81.40;;;;;;5024461;28;20116;-63
2020/12/05 11:08:36;;;;;;;32.50;19.58;;;2.30;81.10;;;;;;5025688;28;20029;-63
2020/12/05 11:11:02;;;;;;;25.40;16.17;;;2.30;81.00;;;;;;5018101;28;20567;-64
2020/12/05 11:13:28;;;;;;;33.75;21.85;;;2.30;81.30;;;;;;5027215;28;20465;-63
2020/12/05 11:15:53;;;;;;;35.15;19.33;;;2.30;81.20;;;;;;5024972;28;20057;-63
2020/12/05 11:18:19;;;;;;;35.42;20.50;;;2.30;81.30;;;;;;5025506;28;20481;-64
2020/12/05 11:20:45;;;;;;;38.88;19.88;;;2.30;81.40;;;;;;5027905;28;20102;-64
2020/12/05 11:23:10;;;;;;;36.85;21.50;;;2.30;80.80;;;;;;5028793;28;20040;-64
2020/12/05 11:25:37;;;;;;;36.13;20.40;;;2.30;80.80;;;;;;5024643;28;20511;-63
2020/12/05 11:28:03;;;;;;;46.35;21.77;;;2.30;81.00;;;;;;5022509;28;20509;-64
2020/12/05 11:30:28;;;;;;;42.95;21.88;;;2.30;81.30;;;;;;5027119;28;20037;-64
2020/12/05 11:32:54;;;;;;;46.92;24.55;;;2.30;81.00;;;;;;5034769;28;20034;-64
2020/12/05 11:35:20;;;;;;;41.13;20.63;;;2.30;80.90;;;;;;5032287;28;20184;-64
2020/12/05 11:37:45;;;;;;;45.10;22.45;;;2.30;81.30;;;;;;5029432;28;20104;-64
2020/12/05 11:40:11;;;;;;;53.90;26.67;;;2.30;81.30;;;;;;5025477;28;20034;-64
2020/12/05 11:42:38;;;;;;;46.88;24.42;;;2.40;81.30;;;;;;5033158;28;20166;-64
2020/12/05 11:45:05;;;;;;;61.13;31.33;;;2.40;81.30;;;;;;5017186;28;20056;-64
2020/12/05 11:47:31;;;;;;;47.95;27.55;;;2.40;81.60;;;;;;5024229;28;20087;-64
2020/12/05 11:49:59;;;;;;;45.17;22.33;;;2.50;81.90;;;;;;5026831;28;20473;-64
2020/12/05 11:52:24;;;;;;;38.47;21.15;;;2.60;81.50;;;;;;5025713;28;20032;-63
2020/12/05 11:54:50;;;;;;;44.88;23.05;;;2.60;81.00;;;;;;5022709;28;20501;-64
2020/12/05 11:57:16;;;;;;;40.85;20.65;;;2.50;81.00;;;;;;5030000;28;20373;-64
2020/12/05 11:59:42;;;;;;;48.58;24.30;;;2.60;80.70;;;;;;5024650;28;20033;-64
2020/12/05 12:02:08;;;;;;;38.75;20.58;;;2.50;80.50;;;;;;5026646;28;20030;-64
2020/12/05 12:04:39;;;;;;;34.88;19.63;;;2.50;80.60;;;;;;5031131;28;20029;-64
2020/12/05 12:07:05;;;;;;;33.30;17.75;;;2.50;80.80;;;;;;5028120;28;20033;-64
2020/12/05 12:09:30;;;;;;;34.70;19.88;;;2.50;81.20;;;;;;5030202;28;20041;-64
2020/12/05 12:11:56;;;;;;;34.78;16.08;;;2.50;81.30;;;;;;5028159;28;20033;-63
2020/12/05 12:14:22;;;;;;;32.88;17.05;;;2.50;81.20;;;;;;5026499;28;20359;-63
2020/12/05 12:16:48;;;;;;;31.27;15.52;;;2.50;81.10;;;;;;5028815;28;20092;-63
2020/12/05 12:19:14;;;;;;;36.92;19.92;;;2.60;81.30;;;;;;5032271;28;20034;-63
2020/12/05 12:21:39;;;;;;;39.17;20.58;;;2.60;81.20;;;;;;5028140;28;20108;-63
2020/12/05 12:24:05;;;;;;;32.80;18.60;;;2.60;81.00;;;;;;5032433;28;20031;-63
2020/12/05 12:26:31;;;;;;;32.28;17.48;;;2.60;81.40;;;;;;5031001;28;20033;-63
2020/12/05 12:28:57;;;;;;;41.40;21.55;;;2.70;81.40;;;;;;5030625;28;20054;-63
2020/12/05 12:31:22;;;;;;;40.13;22.40;;;2.70;80.70;;;;;;5030087;28;20070;-63
2020/12/05 12:33:48;;;;;;;35.25;20.15;;;2.60;80.70;;;;;;5031777;28;20029;-64
2020/12/05 12:36:18;;;;;;;32.15;16.65;;;2.60;80.60;;;;;;5032398;28;20033;-63
2020/12/05 12:38:45;;;;;;;32.53;15.90;;;2.60;81.00;;;;;;5028297;28;20026;-63
2020/12/05 12:41:18;;;;;;;32.15;14.38;;;2.60;80.70;;;;;;5031044;28;20033;-63
2020/12/05 12:43:45;;;;;;;34.08;16.92;;;2.60;81.20;;;;;;5030567;28;20056;-63
2020/12/05 12:46:12;;;;;;;31.08;15.65;;;2.70;81.20;;;;;;5020927;28;20454;-63
2020/12/05 12:48:39;;;;;;;25.48;14.48;;;2.60;81.50;;;;;;5026756;28;20491;-63